JBU1093 KFLL-MYNN
Flight info
| Callsign | JBU1093 |
|---|---|
| Flight time | 0h 29m |
| Altitude | 21000 |
| Route | BEECH DCT BAHMA DCT RAJAY |
| Aircraft | A320/M-SDE3FGHIRWY/LB1 |
Departure
| Time | 2026-05-04 21:01 |
|---|---|
| Airport | Fort Lauderdale Hollywood International Airport (KFLL) |
Arrival
| Time | 2026-05-04 21:31 |
|---|---|
| Airport | Lynden Pindling International Airport (MYNN) |
| Time | Latitude | Longitude | Altitude | Speed | Heading |
|---|---|---|---|---|---|
| 2026-05-04 20:46 | 26.07266 | -80.14654 | 25 ft | 0 kts | 43° |
| 2026-05-04 20:54 | 26.07258 | -80.14661 | 22 ft | 4 kts | 43° |
| 2026-05-04 20:54 | 26.07238 | -80.14681 | 22 ft | 4 kts | 34° |
| 2026-05-04 20:54 | 26.07216 | -80.14692 | 21 ft | 4 kts | 349° |
| 2026-05-04 20:54 | 26.07208 | -80.14689 | 21 ft | 0 kts | 279° |
| 2026-05-04 20:57 | 26.07210 | -80.14701 | 25 ft | 6 kts | 279° |
| 2026-05-04 20:57 | 26.07205 | -80.14765 | 22 ft | 9 kts | 243° |
| 2026-05-04 20:57 | 26.07148 | -80.14824 | 22 ft | 12 kts | 222° |
| 2026-05-04 20:58 | 26.07131 | -80.14897 | 21 ft | 14 kts | 297° |
| 2026-05-04 20:58 | 26.07149 | -80.15015 | 22 ft | 17 kts | 234° |
| 2026-05-04 20:58 | 26.07068 | -80.15102 | 26 ft | 15 kts | 223° |
| 2026-05-04 20:58 | 26.06972 | -80.15129 | 24 ft | 14 kts | 181° |
| 2026-05-04 20:59 | 26.06852 | -80.15130 | 23 ft | 26 kts | 180° |
| 2026-05-04 20:59 | 26.06703 | -80.15160 | 26 ft | 17 kts | 240° |
| 2026-05-04 20:59 | 26.06696 | -80.15307 | 26 ft | 26 kts | 269° |
| 2026-05-04 20:59 | 26.06698 | -80.15543 | 25 ft | 32 kts | 270° |
| 2026-05-04 21:00 | 26.06698 | -80.15771 | 23 ft | 20 kts | 267° |
| 2026-05-04 21:00 | 26.06621 | -80.15817 | 20 ft | 15 kts | 160° |
| 2026-05-04 21:00 | 26.06588 | -80.15721 | 23 ft | 14 kts | 90° |
| 2026-05-04 21:00 | 26.06587 | -80.15409 | 24 ft | 75 kts | 90° |
| 2026-05-04 21:01 | 26.06582 | -80.14597 | 25 ft | 132 kts | 90° |
| 2026-05-04 21:01 | 26.06574 | -80.13526 | 468 ft | 141 kts | 85° |
| 2026-05-04 21:01 | 26.06594 | -80.12411 | 1167 ft | 147 kts | 84° |
| 2026-05-04 21:01 | 26.06638 | -80.11202 | 1867 ft | 169 kts | 83° |
| 2026-05-04 21:02 | 26.06668 | -80.09803 | 2568 ft | 191 kts | 88° |
| 2026-05-04 21:02 | 26.06679 | -80.08247 | 3142 ft | 210 kts | 86° |
| 2026-05-04 21:02 | 26.06694 | -80.06549 | 3569 ft | 235 kts | 87° |
| 2026-05-04 21:02 | 26.06712 | -80.04640 | 4156 ft | 256 kts | 86° |
| 2026-05-04 21:03 | 26.06728 | -80.02629 | 5005 ft | 265 kts | 87° |
| 2026-05-04 21:03 | 26.06741 | -80.00538 | 5825 ft | 275 kts | 88° |
| 2026-05-04 21:03 | 26.06733 | -79.98374 | 6615 ft | 285 kts | 90° |
| 2026-05-04 21:03 | 26.06707 | -79.96140 | 7418 ft | 294 kts | 90° |
| 2026-05-04 21:04 | 26.06677 | -79.93837 | 8204 ft | 302 kts | 90° |
| 2026-05-04 21:04 | 26.06649 | -79.91474 | 9034 ft | 309 kts | 91° |
| 2026-05-04 21:04 | 26.06623 | -79.89059 | 9856 ft | 316 kts | 91° |
| 2026-05-04 21:04 | 26.06596 | -79.86549 | 10352 ft | 335 kts | 91° |
| 2026-05-04 21:05 | 26.06562 | -79.83874 | 10737 ft | 355 kts | 93° |
| 2026-05-04 21:05 | 26.06246 | -79.81116 | 11414 ft | 364 kts | 102° |
| 2026-05-04 21:05 | 26.05802 | -79.78327 | 12171 ft | 370 kts | 102° |
| 2026-05-04 21:05 | 26.05355 | -79.75480 | 12884 ft | 375 kts | 102° |
| 2026-05-04 21:06 | 26.04912 | -79.72602 | 13591 ft | 381 kts | 102° |
| 2026-05-04 21:06 | 26.04463 | -79.69678 | 14236 ft | 386 kts | 102° |
| 2026-05-04 21:06 | 26.04009 | -79.66724 | 14855 ft | 390 kts | 102° |
| 2026-05-04 21:06 | 26.03520 | -79.63735 | 15476 ft | 394 kts | 104° |
| 2026-05-04 21:07 | 26.02911 | -79.60747 | 16098 ft | 398 kts | 107° |
| 2026-05-04 21:07 | 26.02205 | -79.57755 | 16719 ft | 402 kts | 108° |
| 2026-05-04 21:07 | 26.01452 | -79.54750 | 17338 ft | 406 kts | 109° |
| 2026-05-04 21:07 | 26.00680 | -79.51706 | 17954 ft | 410 kts | 108° |
| 2026-05-04 21:08 | 26.00171 | -79.49676 | 18346 ft | 413 kts | 108° |
| 2026-05-04 21:08 | 25.99412 | -79.46581 | 18866 ft | 417 kts | 108° |
| 2026-05-04 21:08 | 25.98663 | -79.43453 | 19420 ft | 421 kts | 107° |
| 2026-05-04 21:08 | 25.97923 | -79.40293 | 19970 ft | 425 kts | 107° |
| 2026-05-04 21:09 | 25.97062 | -79.37145 | 20512 ft | 426 kts | 114° |
| 2026-05-04 21:09 | 25.96006 | -79.34061 | 20883 ft | 429 kts | 114° |
| 2026-05-04 21:09 | 25.94920 | -79.30929 | 20984 ft | 443 kts | 114° |
| 2026-05-04 21:09 | 25.93776 | -79.27672 | 21004 ft | 461 kts | 114° |
| 2026-05-04 21:10 | 25.92588 | -79.24298 | 21001 ft | 477 kts | 114° |
| 2026-05-04 21:10 | 25.91365 | -79.20813 | 21003 ft | 491 kts | 114° |
| 2026-05-04 21:10 | 25.90116 | -79.17235 | 21003 ft | 502 kts | 114° |
| 2026-05-04 21:10 | 25.88845 | -79.13584 | 21003 ft | 511 kts | 114° |
| 2026-05-04 21:11 | 25.87560 | -79.09880 | 21000 ft | 515 kts | 114° |
| 2026-05-04 21:11 | 25.86274 | -79.06165 | 20999 ft | 516 kts | 114° |
| 2026-05-04 21:11 | 25.84984 | -79.02453 | 21000 ft | 516 kts | 114° |
| 2026-05-04 21:11 | 25.83688 | -78.98744 | 20981 ft | 516 kts | 114° |
| 2026-05-04 21:12 | 25.82390 | -78.95039 | 20993 ft | 516 kts | 114° |
| 2026-05-04 21:12 | 25.81085 | -78.91323 | 20996 ft | 516 kts | 114° |
| 2026-05-04 21:12 | 25.79780 | -78.87618 | 20994 ft | 516 kts | 114° |
| 2026-05-04 21:12 | 25.78470 | -78.83913 | 20992 ft | 516 kts | 114° |
| 2026-05-04 21:13 | 25.77162 | -78.80213 | 20985 ft | 515 kts | 114° |
| 2026-05-04 21:13 | 25.75855 | -78.76513 | 20982 ft | 515 kts | 114° |
| 2026-05-04 21:13 | 25.74528 | -78.72820 | 20977 ft | 514 kts | 117° |
| 2026-05-04 21:13 | 25.72776 | -78.69395 | 20975 ft | 508 kts | 128° |
| 2026-05-04 21:14 | 25.70814 | -78.66186 | 20972 ft | 508 kts | 128° |
| 2026-05-04 21:14 | 25.68833 | -78.62958 | 20946 ft | 496 kts | 128° |
| 2026-05-04 21:14 | 25.66967 | -78.59905 | 20561 ft | 462 kts | 128° |
| 2026-05-04 21:14 | 25.65224 | -78.57043 | 20337 ft | 432 kts | 128° |
| 2026-05-04 21:15 | 25.63593 | -78.54368 | 19980 ft | 410 kts | 128° |
| 2026-05-04 21:15 | 25.62010 | -78.51787 | 19293 ft | 400 kts | 129° |
| 2026-05-04 21:15 | 25.60451 | -78.49265 | 18524 ft | 394 kts | 129° |
| 2026-05-04 21:15 | 25.58912 | -78.46783 | 17822 ft | 386 kts | 129° |
| 2026-05-04 21:16 | 25.57290 | -78.44519 | 17387 ft | 364 kts | 140° |
| 2026-05-04 21:16 | 25.55454 | -78.42699 | 16989 ft | 346 kts | 146° |
| 2026-05-04 21:16 | 25.53657 | -78.40990 | 16609 ft | 334 kts | 146° |
| 2026-05-04 21:16 | 25.51923 | -78.39336 | 16247 ft | 326 kts | 146° |
| 2026-05-04 21:17 | 25.50202 | -78.37703 | 15872 ft | 326 kts | 146° |
| 2026-05-04 21:17 | 25.48476 | -78.36068 | 15480 ft | 327 kts | 146° |
| 2026-05-04 21:17 | 25.46753 | -78.34433 | 15120 ft | 327 kts | 145° |
| 2026-05-04 21:17 | 25.45025 | -78.32793 | 14743 ft | 327 kts | 145° |
| 2026-05-04 21:18 | 25.43297 | -78.31152 | 14377 ft | 328 kts | 145° |
| 2026-05-04 21:18 | 25.41565 | -78.29508 | 13997 ft | 328 kts | 145° |
| 2026-05-04 21:18 | 25.39848 | -78.27878 | 13600 ft | 329 kts | 145° |
| 2026-05-04 21:18 | 25.38111 | -78.26229 | 13212 ft | 328 kts | 144° |
| 2026-05-04 21:19 | 25.36382 | -78.24585 | 12823 ft | 327 kts | 144° |
| 2026-05-04 21:19 | 25.34661 | -78.22945 | 12443 ft | 326 kts | 144° |
| 2026-05-04 21:19 | 25.32943 | -78.21311 | 12061 ft | 325 kts | 144° |
| 2026-05-04 21:19 | 25.31311 | -78.19566 | 11672 ft | 328 kts | 133° |
| 2026-05-04 21:20 | 25.30080 | -78.17427 | 11287 ft | 332 kts | 117° |
| 2026-05-04 21:20 | 25.29358 | -78.14999 | 10890 ft | 334 kts | 103° |
| 2026-05-04 21:20 | 25.28869 | -78.12487 | 10487 ft | 334 kts | 103° |
| 2026-05-04 21:20 | 25.28380 | -78.09982 | 10135 ft | 331 kts | 103° |
| 2026-05-04 21:21 | 25.27904 | -78.07550 | 9747 ft | 319 kts | 103° |
| 2026-05-04 21:21 | 25.27439 | -78.05189 | 9288 ft | 309 kts | 103° |
| 2026-05-04 21:21 | 25.26990 | -78.02915 | 8911 ft | 297 kts | 103° |
| 2026-05-04 21:21 | 25.26552 | -78.00717 | 8550 ft | 287 kts | 103° |
| 2026-05-04 21:22 | 25.26127 | -77.98602 | 8203 ft | 283 kts | 103° |
| 2026-05-04 21:22 | 25.25698 | -77.96463 | 7856 ft | 285 kts | 103° |
| 2026-05-04 21:22 | 25.25270 | -77.94315 | 7502 ft | 286 kts | 103° |
| 2026-05-04 21:22 | 25.24848 | -77.92190 | 7156 ft | 287 kts | 103° |
| 2026-05-04 21:23 | 25.24418 | -77.90029 | 6797 ft | 288 kts | 103° |
| 2026-05-04 21:23 | 25.23987 | -77.87865 | 6440 ft | 290 kts | 103° |
| 2026-05-04 21:23 | 25.23552 | -77.85686 | 6055 ft | 291 kts | 103° |
| 2026-05-04 21:23 | 25.23121 | -77.83511 | 5692 ft | 291 kts | 103° |
| 2026-05-04 21:24 | 25.22687 | -77.81327 | 5325 ft | 291 kts | 103° |
| 2026-05-04 21:24 | 25.22251 | -77.79147 | 4999 ft | 289 kts | 103° |
| 2026-05-04 21:24 | 25.21816 | -77.76983 | 4710 ft | 286 kts | 103° |
| 2026-05-04 21:24 | 25.21395 | -77.74891 | 4524 ft | 269 kts | 103° |
| 2026-05-04 21:25 | 25.21003 | -77.72953 | 4415 ft | 248 kts | 103° |
| 2026-05-04 21:25 | 25.20642 | -77.71158 | 4315 ft | 232 kts | 103° |
| 2026-05-04 21:25 | 25.20283 | -77.69362 | 4215 ft | 246 kts | 103° |
| 2026-05-04 21:25 | 25.19912 | -77.67513 | 4105 ft | 248 kts | 103° |
| 2026-05-04 21:26 | 25.19538 | -77.65650 | 3995 ft | 248 kts | 103° |
| 2026-05-04 21:26 | 25.19146 | -77.63801 | 3817 ft | 249 kts | 108° |
| 2026-05-04 21:26 | 25.18303 | -77.62171 | 3546 ft | 243 kts | 134° |
| 2026-05-04 21:26 | 25.17121 | -77.60844 | 3252 ft | 242 kts | 136° |
| 2026-05-04 21:27 | 25.15937 | -77.59533 | 2943 ft | 241 kts | 135° |
| 2026-05-04 21:27 | 25.14758 | -77.58221 | 2640 ft | 239 kts | 136° |
| 2026-05-04 21:27 | 25.13633 | -77.56967 | 2332 ft | 220 kts | 136° |
| 2026-05-04 21:27 | 25.12608 | -77.55825 | 2091 ft | 198 kts | 135° |
| 2026-05-04 21:28 | 25.11684 | -77.54796 | 1823 ft | 181 kts | 134° |
| 2026-05-04 21:28 | 25.10839 | -77.53857 | 1612 ft | 163 kts | 135° |
| 2026-05-04 21:28 | 25.10072 | -77.53004 | 1398 ft | 151 kts | 135° |
| 2026-05-04 21:28 | 25.09338 | -77.52188 | 1206 ft | 149 kts | 135° |
| 2026-05-04 21:29 | 25.08611 | -77.51387 | 1069 ft | 147 kts | 135° |
| 2026-05-04 21:29 | 25.07905 | -77.50582 | 877 ft | 146 kts | 133° |
| 2026-05-04 21:29 | 25.07203 | -77.49798 | 641 ft | 137 kts | 133° |
| 2026-05-04 21:29 | 25.06555 | -77.49085 | 436 ft | 130 kts | 132° |
| 2026-05-04 21:30 | 25.05929 | -77.48385 | 262 ft | 128 kts | 132° |
| 2026-05-04 21:30 | 25.05299 | -77.47689 | 93 ft | 127 kts | 133° |
| 2026-05-04 21:30 | 25.04693 | -77.47017 | 16 ft | 113 kts | 135° |
| 2026-05-04 21:30 | 25.04264 | -77.46544 | 12 ft | 55 kts | 133° |
| 2026-05-04 21:31 | 25.04152 | -77.46176 | 12 ft | 12 kts | 0° |
| 2026-05-04 21:31 | 25.04233 | -77.46248 | 12 ft | 24 kts | 314° |
| 2026-05-04 21:31 | 25.04395 | -77.46431 | 12 ft | 34 kts | 313° |
| 2026-05-04 21:32 | 25.04561 | -77.46616 | 12 ft | 34 kts | 315° |
| 2026-05-04 21:32 | 25.04669 | -77.46729 | 12 ft | 9 kts | 323° |
| 2026-05-04 21:32 | 25.04716 | -77.46729 | 12 ft | 10 kts | 31° |
| 2026-05-04 21:32 | 25.04801 | -77.46726 | 12 ft | 7 kts | 314° |
| 2026-05-04 21:33 | 25.04811 | -77.46738 | 12 ft | 0 kts | 314° |